Main page
METAR-TAF:

METAR-TAF

Airports :

Tokyo-Haneda, Japan

Haneda Airport

latitude: 35-33N, longitude: 139-47E, elevation: 5 m

Current weather observation

The report was made 35 minutes ago, at 16:00 UTC
Wind 15 kt from the South
Temperature 27°C
Humidity 89%
Pressure 1009 hPa
Visibility 10 km or more
Few clouds at a height of 800 ft
Broken clouds at a height of 1000 ft

METAR: RJTT 221600Z 19015KT 9999 FEW008 BKN010 27/25 Q1009 NOSIG RMK 1ST008 5CU010 A2980

Time: 01:35 (16:35 UTC)

Forecast

The report was made 5 hours and 30 minutes ago, at 11:05 UTC
Forecast valid from 22 at 12 UTC to 23 at 18 UTC
Wind 16 kt from the South/Southwest
Visibility 10 km or more
Few clouds at a height of 800 ft
Broken clouds at a height of 1500 ft

TAF: RJTT 221105Z 2212/2318 20016KT 9999 FEW008 BKN015

Weather observations and forecasts of more than 4000 airports (METAR and TAF reports).

The available stations are represented by yellow and red dots on the map.

Hover mouse over dot to see the name of the station.

Then click to see weather observations and forecasts.

To change the map : click on the green buttons with a black cross to zoom in, on the green button with a dash to zoom out, or on the green arrows for adjacent maps.


METAR-TAF: